createdAt,value
2019-02-22T00:01:02.892Z,12.88
2019-02-22T00:03:33.256Z,12.53
2019-02-22T00:06:07.177Z,13.62
2019-02-22T00:08:36.459Z,13.10
2019-02-22T00:11:06.568Z,13.58
2019-02-22T00:13:40.411Z,12.95
2019-02-22T00:16:09.675Z,9.18
2019-02-22T00:18:38.748Z,12.15
2019-02-22T00:21:07.843Z,12.37
2019-02-22T00:23:37.152Z,14.18
2019-02-22T00:26:06.198Z,12.10
2019-02-22T00:28:35.340Z,12.85
2019-02-22T00:31:04.638Z,12.75
2019-02-22T00:33:33.797Z,14.03
2019-02-22T00:36:02.755Z,13.53
2019-02-22T00:38:32.013Z,11.83
2019-02-22T00:41:01.013Z,13.85
2019-02-22T00:43:30.008Z,12.65
2019-02-22T00:45:59.308Z,13.60
2019-02-22T00:48:28.299Z,16.65
2019-02-22T00:50:57.283Z,14.68
2019-02-22T00:53:26.388Z,12.93
2019-02-22T00:55:55.487Z,13.40
2019-02-22T00:58:24.478Z,13.50
2019-02-22T01:00:53.674Z,13.85
2019-02-22T01:03:22.676Z,13.68
2019-02-22T01:05:51.771Z,12.82
2019-02-22T01:08:20.963Z,12.25
2019-02-22T01:10:50.174Z,13.38
2019-02-22T01:13:19.357Z,14.05
2019-02-22T01:15:48.663Z,14.45
2019-02-22T01:18:17.796Z,14.58
2019-02-22T01:20:53.940Z,14.30
2019-02-22T01:23:17.888Z,14.78
2019-02-22T01:25:46.978Z,15.08
2019-02-22T01:28:16.288Z,13.28
2019-02-22T01:30:45.380Z,15.50
2019-02-22T01:33:14.382Z,15.38
2019-02-22T01:35:44.908Z,13.28
2019-02-22T01:38:13.977Z,14.00
2019-02-22T01:40:44.229Z,14.90
2019-02-22T01:43:14.948Z,14.80
2019-02-22T01:45:44.148Z,12.25
2019-02-22T01:48:14.376Z,11.88
2019-02-22T01:50:43.669Z,15.28
2019-02-22T01:53:12.773Z,15.65
2019-02-22T01:55:41.973Z,14.55
2019-02-22T01:58:12.568Z,12.07
2019-02-22T02:00:43.023Z,15.23
2019-02-22T02:03:12.218Z,14.63
2019-02-22T02:05:41.330Z,18.07
2019-02-22T02:08:10.306Z,14.28
2019-02-22T02:10:39.403Z,9.75
2019-02-22T02:13:08.503Z,18.32
2019-02-22T02:15:37.799Z,16.37
2019-02-22T02:18:06.894Z,17.07
2019-02-22T02:20:36.218Z,15.63
2019-02-22T02:23:05.403Z,15.58
2019-02-22T02:25:34.478Z,17.60
2019-02-22T02:28:03.399Z,16.87
2019-02-22T02:30:32.596Z,16.05
2019-02-22T02:33:01.670Z,12.45
2019-02-22T02:35:30.675Z,14.35
2019-02-22T02:37:59.858Z,18.15
2019-02-22T02:40:28.855Z,15.50
2019-02-22T02:42:58.057Z,15.10
2019-02-22T02:45:27.148Z,16.42
2019-02-22T02:47:56.353Z,15.50
2019-02-22T02:50:25.452Z,11.05
2019-02-22T02:52:54.652Z,14.28
2019-02-22T02:55:31.715Z,15.00
2019-02-22T02:58:00.823Z,15.83
2019-02-22T03:00:29.913Z,14.90
2019-02-22T03:02:59.223Z,11.03
2019-02-22T03:05:42.145Z,14.70
2019-02-22T03:08:11.343Z,15.78
2019-02-22T03:10:40.427Z,12.43
2019-02-22T03:13:09.624Z,15.40
2019-02-22T03:15:38.709Z,11.48
2019-02-22T03:18:07.818Z,14.70
2019-02-22T03:20:37.319Z,12.00
2019-02-22T03:23:06.518Z,15.43
2019-02-22T03:25:35.608Z,11.48
2019-02-22T03:28:04.700Z,13.15
2019-02-22T03:30:33.799Z,14.03
2019-02-22T03:33:02.800Z,15.48
2019-02-22T03:35:32.023Z,12.13
2019-02-22T03:38:01.089Z,14.65
2019-02-22T03:40:30.178Z,14.70
2019-02-22T03:43:00.510Z,14.03
2019-02-22T03:45:29.928Z,13.03
2019-02-22T03:47:59.004Z,14.15
2019-02-22T03:50:28.034Z,15.65
2019-02-22T03:52:58.637Z,15.18
2019-02-22T03:55:27.723Z,14.20
2019-02-22T03:57:56.923Z,14.78
2019-02-22T04:00:25.914Z,14.38
2019-02-22T04:02:54.903Z,13.15
2019-02-22T04:05:24.008Z,15.15
2019-02-22T04:07:53.104Z,14.25
2019-02-22T04:10:22.073Z,15.18
2019-02-22T04:12:51.394Z,15.93
2019-02-22T04:15:20.499Z,16.97
2019-02-22T04:17:49.418Z,16.20
2019-02-22T04:20:18.678Z,14.95
2019-02-22T04:22:47.770Z,10.95
2019-02-22T04:25:16.774Z,13.20
2019-02-22T04:27:45.964Z,13.90
2019-02-22T04:30:15.158Z,16.75
2019-02-22T04:32:44.259Z,16.07
2019-02-22T04:35:13.553Z,15.45
2019-02-22T04:37:42.556Z,14.58
2019-02-22T04:40:11.549Z,15.40
2019-02-22T04:42:40.783Z,15.23
2019-02-22T04:45:09.918Z,16.07
2019-02-22T04:47:39.045Z,17.85
2019-02-22T04:50:08.523Z,15.28
2019-02-22T04:52:37.946Z,14.73
2019-02-22T04:55:07.033Z,14.45
2019-02-22T04:57:36.335Z,13.25
2019-02-22T05:00:05.427Z,15.80
2019-02-22T05:02:34.523Z,15.43
2019-02-22T05:05:03.818Z,16.80
2019-02-22T05:07:32.934Z,14.95
2019-02-22T05:10:02.024Z,16.70
2019-02-22T05:12:31.318Z,16.02
2019-02-22T05:15:11.843Z,15.80
2019-02-22T05:17:30.928Z,14.75
2019-02-22T05:20:00.358Z,16.25
2019-02-22T05:22:29.514Z,14.95
2019-02-22T05:24:58.639Z,16.00
2019-02-22T05:27:27.833Z,16.15
2019-02-22T05:29:57.039Z,16.82
2019-02-22T05:32:26.043Z,17.30
2019-02-22T05:34:55.220Z,15.70
2019-02-22T05:37:24.525Z,15.55
2019-02-22T05:39:53.613Z,14.83
2019-02-22T05:42:23.412Z,13.40
2019-02-22T05:44:52.833Z,13.83
2019-02-22T05:47:21.933Z,14.10
2019-02-22T05:49:51.233Z,13.83
2019-02-22T05:52:20.314Z,12.98
2019-02-22T05:54:49.206Z,13.75
2019-02-22T05:57:18.306Z,13.80
2019-02-22T05:59:47.196Z,15.25
2019-02-22T06:02:16.189Z,16.73
2019-02-22T06:04:45.394Z,14.38
2019-02-22T06:07:14.755Z,15.60
2019-02-22T06:09:43.781Z,17.27
2019-02-22T06:12:13.084Z,17.02
2019-02-22T06:14:42.076Z,14.25
2019-02-22T06:17:14.494Z,13.88
2019-02-22T06:19:42.009Z,14.05
2019-02-22T06:22:10.923Z,12.88
2019-02-22T06:24:40.089Z,12.43
2019-02-22T06:27:09.079Z,12.88
2019-02-22T06:29:38.090Z,13.18
2019-02-22T06:32:07.077Z,12.37
2019-02-22T06:34:36.244Z,16.55
2019-02-22T06:37:05.465Z,12.93
2019-02-22T06:39:34.673Z,17.77
2019-02-22T06:42:03.654Z,16.30
2019-02-22T06:44:32.645Z,13.80
2019-02-22T06:47:01.544Z,13.00
2019-02-22T06:49:30.640Z,12.25
2019-02-22T06:51:59.557Z,13.22
2019-02-22T06:54:28.614Z,12.45
2019-02-22T06:56:57.826Z,12.45
2019-02-22T06:59:26.905Z,13.70
2019-02-22T07:01:56.014Z,13.03
2019-02-22T07:04:25.219Z,13.08
2019-02-22T07:06:54.214Z,12.10
2019-02-22T07:09:23.299Z,7.87
2019-02-22T07:11:59.759Z,12.65
2019-02-22T07:14:28.649Z,10.55
2019-02-22T07:16:57.650Z,12.10
2019-02-22T07:19:26.651Z,13.68
2019-02-22T07:21:55.839Z,11.10
2019-02-22T07:24:24.829Z,12.70
2019-02-22T07:26:53.923Z,12.00
2019-02-22T07:29:23.024Z,12.60
2019-02-22T07:31:52.114Z,15.10
2019-02-22T07:34:21.146Z,14.23
2019-02-22T07:36:50.209Z,12.65
2019-02-22T07:39:27.402Z,13.48
2019-02-22T07:41:50.045Z,12.70
2019-02-22T07:44:19.005Z,14.60
2019-02-22T07:46:48.126Z,14.30
2019-02-22T07:49:24.878Z,11.60
2019-02-22T07:51:53.794Z,13.10
2019-02-22T07:54:22.889Z,12.53
2019-02-22T07:56:52.084Z,11.35
2019-02-22T07:59:21.184Z,13.50
2019-02-22T08:01:50.070Z,11.60
2019-02-22T08:04:19.272Z,11.78
2019-02-22T08:06:55.534Z,11.95
2019-02-22T08:09:24.619Z,11.03
2019-02-22T08:11:53.514Z,10.15
2019-02-22T08:14:22.512Z,12.23
2019-02-22T08:16:51.610Z,12.25
2019-02-22T08:19:20.605Z,11.55
2019-02-22T08:21:49.697Z,13.28
2019-02-22T08:24:18.899Z,12.98
2019-02-22T08:26:47.884Z,12.30
2019-02-22T08:29:16.984Z,13.22
2019-02-22T08:31:46.084Z,12.90
2019-02-22T08:34:15.183Z,10.90
2019-02-22T08:36:44.169Z,12.43
2019-02-22T08:39:13.374Z,15.53
2019-02-22T08:41:42.574Z,12.70
2019-02-22T08:44:11.720Z,12.53
2019-02-22T08:46:41.054Z,12.20
2019-02-22T08:49:09.952Z,11.57
2019-02-22T08:51:38.947Z,9.80
2019-02-22T08:54:08.144Z,11.48
2019-02-22T08:56:37.129Z,9.70
2019-02-22T08:59:06.148Z,10.98
2019-02-22T09:01:35.808Z,8.18
2019-02-22T09:04:05.036Z,11.05
2019-02-22T09:06:34.249Z,12.53
2019-02-22T09:09:04.860Z,12.20
2019-02-22T09:11:33.960Z,11.88
2019-02-22T09:14:02.940Z,11.40
2019-02-22T09:16:32.240Z,12.93
2019-02-22T09:19:02.364Z,11.93
2019-02-22T09:21:31.362Z,11.57
2019-02-22T09:24:00.554Z,9.58
2019-02-22T09:26:29.659Z,10.72
2019-02-22T09:28:58.644Z,12.53
2019-02-22T09:31:27.949Z,10.20
2019-02-22T09:33:56.834Z,13.05
2019-02-22T09:36:26.047Z,11.12
2019-02-22T09:38:55.233Z,11.43
2019-02-22T09:41:24.235Z,10.10
2019-02-22T09:43:55.561Z,10.20
2019-02-22T09:46:24.158Z,11.88
2019-02-22T09:48:53.063Z,11.45
2019-02-22T09:51:22.356Z,14.25
2019-02-22T09:53:51.654Z,13.03
2019-02-22T09:56:20.640Z,12.50
2019-02-22T09:58:49.630Z,15.50
2019-02-22T10:01:18.942Z,16.90
2019-02-22T10:03:47.919Z,15.08
2019-02-22T10:06:16.919Z,13.28
2019-02-22T10:08:46.019Z,13.78
2019-02-22T10:11:15.119Z,16.17
2019-02-22T10:13:44.004Z,14.83
2019-02-22T10:16:13.194Z,15.30
2019-02-22T10:18:42.299Z,17.12
2019-02-22T10:21:11.389Z,15.35
2019-02-22T10:23:40.695Z,14.15
2019-02-22T10:26:09.725Z,16.17
2019-02-22T10:28:38.877Z,14.38
2019-02-22T10:31:07.974Z,16.70
2019-02-22T10:33:37.105Z,16.52
2019-02-22T10:36:06.265Z,17.55
2019-02-22T10:38:36.107Z,17.32
2019-02-22T10:41:05.177Z,17.15
2019-02-22T10:43:34.174Z,17.25
2019-02-22T10:46:03.262Z,15.18
2019-02-22T10:48:33.384Z,15.40
2019-02-22T10:51:02.376Z,18.00
2019-02-22T10:53:31.372Z,17.07
2019-02-22T10:56:00.459Z,16.17
2019-02-22T10:58:29.564Z,15.20
2019-02-22T11:00:58.549Z,16.75
2019-02-22T11:03:27.649Z,14.30
2019-02-22T11:05:56.528Z,13.35
2019-02-22T11:08:25.547Z,15.25
2019-02-22T11:10:55.134Z,13.62
2019-02-22T11:13:24.234Z,17.37
2019-02-22T11:15:53.229Z,13.50
2019-02-22T11:18:22.309Z,17.87
2019-02-22T11:20:51.416Z,15.68
2019-02-22T11:23:20.519Z,13.32
2019-02-22T11:25:49.605Z,12.73
2019-02-22T11:28:18.712Z,14.50
2019-02-22T11:30:47.704Z,15.38
2019-02-22T11:33:16.894Z,14.80
2019-02-22T11:35:46.005Z,15.32
2019-02-22T11:38:15.285Z,14.33
2019-02-22T11:40:44.362Z,14.60
2019-02-22T11:43:13.384Z,14.18
2019-02-22T11:45:42.575Z,16.32
2019-02-22T11:48:11.467Z,16.37
2019-02-22T11:50:40.874Z,15.05
2019-02-22T11:53:10.064Z,15.03
2019-02-22T11:55:39.069Z,13.70
2019-02-22T11:58:07.956Z,13.60
2019-02-22T12:00:37.149Z,17.52
2019-02-22T12:03:21.311Z,14.75
2019-02-22T12:05:37.294Z,15.08
2019-02-22T12:08:06.589Z,13.53
2019-02-22T12:10:35.991Z,14.30
2019-02-22T12:13:05.084Z,16.50
2019-02-22T12:15:33.974Z,16.00
2019-02-22T12:18:02.884Z,16.85
2019-02-22T12:20:31.862Z,13.65
2019-02-22T12:23:01.054Z,15.20
2019-02-22T12:25:30.044Z,14.80
2019-02-22T12:27:59.023Z,12.53
2019-02-22T12:30:28.344Z,13.98
2019-02-22T12:32:57.334Z,14.78
2019-02-22T12:35:26.336Z,11.63
2019-02-22T12:37:55.440Z,13.32
2019-02-22T12:40:24.409Z,13.62
2019-02-22T12:42:53.424Z,11.95
2019-02-22T12:45:22.599Z,12.35
2019-02-22T12:47:51.491Z,13.03
2019-02-22T12:50:20.494Z,12.10
2019-02-22T12:52:49.999Z,14.10
2019-02-22T12:55:18.991Z,12.93
2019-02-22T12:57:47.989Z,14.00
2019-02-22T13:00:18.739Z,12.73
2019-02-22T13:02:48.092Z,13.05
2019-02-22T13:05:22.454Z,12.58
2019-02-22T13:07:52.743Z,13.45
2019-02-22T13:10:22.272Z,13.72
2019-02-22T13:12:51.154Z,13.65
2019-02-22T13:15:20.349Z,14.40
2019-02-22T13:17:49.234Z,14.18
2019-02-22T13:20:18.245Z,14.68
2019-02-22T13:22:47.224Z,13.75
2019-02-22T13:25:16.325Z,7.20
2019-02-22T13:27:45.237Z,19.50
2019-02-22T13:30:15.484Z,15.35
2019-02-22T13:32:44.329Z,19.27
2019-02-22T13:35:13.525Z,14.83
2019-02-22T13:37:42.824Z,16.97
2019-02-22T13:40:18.577Z,16.42
2019-02-22T13:42:47.698Z,19.90
2019-02-22T13:45:26.261Z,17.52
2019-02-22T13:47:47.412Z,14.78
2019-02-22T13:50:17.479Z,13.32
2019-02-22T13:52:46.400Z,16.42
2019-02-22T13:55:15.555Z,15.05
2019-02-22T13:57:44.800Z,15.03
2019-02-22T14:00:16.257Z,16.55
2019-02-22T14:02:45.354Z,12.43
2019-02-22T14:05:15.345Z,13.13
2019-02-22T14:07:57.470Z,12.95
2019-02-22T14:10:26.970Z,17.75
2019-02-22T14:12:55.965Z,13.88
2019-02-22T14:15:24.848Z,14.83
2019-02-22T14:17:54.025Z,15.53
2019-02-22T14:20:23.034Z,16.30
2019-02-22T14:22:52.335Z,14.95
2019-02-22T14:25:21.544Z,12.47
2019-02-22T14:27:50.639Z,13.05
2019-02-22T14:30:19.737Z,12.73
2019-02-22T14:32:49.047Z,13.25
2019-02-22T14:35:18.020Z,11.20
2019-02-22T14:37:47.069Z,11.03
2019-02-22T14:40:16.309Z,11.25
2019-02-22T14:42:45.315Z,10.40
2019-02-22T14:45:14.512Z,14.40
2019-02-22T14:47:43.599Z,10.53
2019-02-22T14:50:15.154Z,9.88
2019-02-22T14:52:44.044Z,10.40
2019-02-22T14:55:13.350Z,11.68
2019-02-22T14:57:44.950Z,10.08
2019-02-22T15:00:20.860Z,9.68
2019-02-22T15:02:49.736Z,16.27
2019-02-22T15:05:18.743Z,12.70
2019-02-22T15:07:48.200Z,10.23
2019-02-22T15:10:18.645Z,8.48
2019-02-22T15:12:47.975Z,8.40
2019-02-22T15:15:19.578Z,8.33
2019-02-22T15:17:50.007Z,9.10
2019-02-22T15:20:18.927Z,9.28
2019-02-22T15:22:47.935Z,8.73
2019-02-22T15:25:17.930Z,8.18
2019-02-22T15:27:47.245Z,8.83
2019-02-22T15:30:19.328Z,8.10
2019-02-22T15:32:48.207Z,8.10
2019-02-22T15:35:18.166Z,8.98
2019-02-22T15:37:47.320Z,7.12
2019-02-22T15:40:16.545Z,8.75
2019-02-22T15:42:45.401Z,6.72
2019-02-22T15:45:16.771Z,8.25
2019-02-22T15:47:48.496Z,7.80
2019-02-22T15:50:17.198Z,7.05
2019-02-22T15:52:47.324Z,9.35
2019-02-22T15:55:16.320Z,8.78
2019-02-22T15:57:45.412Z,7.62
2019-02-22T16:00:31.921Z,9.60
2019-02-22T16:03:00.910Z,7.97
2019-02-22T16:05:34.409Z,7.42
2019-02-22T16:08:03.405Z,7.58
2019-02-22T16:10:32.494Z,8.93
2019-02-22T16:13:01.594Z,8.03
2019-02-22T16:15:32.706Z,8.33
2019-02-22T16:18:01.514Z,7.65
2019-02-22T16:20:30.514Z,7.97
2019-02-22T16:22:59.519Z,8.25
2019-02-22T16:25:28.399Z,7.97
2019-02-22T16:27:57.290Z,7.97
2019-02-22T16:30:28.019Z,7.28
2019-02-22T16:32:56.999Z,9.25
2019-02-22T16:35:25.998Z,8.05
2019-02-22T16:37:55.099Z,8.63
2019-02-22T16:40:24.214Z,9.55
2019-02-22T16:42:53.189Z,9.15
2019-02-22T16:45:22.279Z,8.60
2019-02-22T16:47:51.294Z,8.73
2019-02-22T16:50:20.482Z,8.43
2019-02-22T16:52:49.681Z,8.18
2019-02-22T16:55:18.649Z,9.05
2019-02-22T16:57:47.757Z,8.25
2019-02-22T17:00:17.754Z,8.25
2019-02-22T17:02:51.829Z,8.60
2019-02-22T17:05:20.907Z,8.68
2019-02-22T17:07:50.114Z,8.78
2019-02-22T17:10:19.180Z,8.13
2019-02-22T17:12:48.176Z,8.90
2019-02-22T17:15:17.375Z,9.08
2019-02-22T17:17:46.356Z,7.97
2019-02-22T17:20:16.075Z,8.43
2019-02-22T17:22:45.787Z,8.33
2019-02-22T17:25:16.691Z,8.08
2019-02-22T17:27:45.629Z,7.20
2019-02-22T17:30:19.823Z,7.15
2019-02-22T17:32:48.726Z,8.10
2019-02-22T17:35:17.601Z,7.72
2019-02-22T17:37:46.702Z,7.25
2019-02-22T17:40:18.772Z,7.42
2019-02-22T17:42:47.768Z,7.97
2019-02-22T17:45:16.959Z,7.90
2019-02-22T17:47:45.934Z,7.25
2019-02-22T17:50:15.043Z,7.25
2019-02-22T17:52:44.251Z,6.78
2019-02-22T17:55:13.350Z,7.67
2019-02-22T17:57:42.224Z,7.05
2019-02-22T18:00:22.274Z,7.67
2019-02-22T18:02:51.173Z,7.67
2019-02-22T18:05:20.055Z,6.75
2019-02-22T18:07:49.464Z,6.60
2019-02-22T18:10:18.494Z,7.30
2019-02-22T18:12:47.456Z,7.72
2019-02-22T18:15:17.875Z,7.45
2019-02-22T18:17:47.656Z,6.95
2019-02-22T18:20:16.798Z,6.90
2019-02-22T18:22:46.089Z,7.97
2019-02-22T18:25:14.987Z,6.87
2019-02-22T18:27:44.070Z,7.55
2019-02-22T18:30:18.899Z,7.30
2019-02-22T18:32:47.899Z,6.12
2019-02-22T18:35:17.015Z,7.28
2019-02-22T18:37:45.979Z,6.53
2019-02-22T18:40:18.049Z,7.05
2019-02-22T18:42:47.139Z,7.62
2019-02-22T18:45:16.315Z,7.50
2019-02-22T18:47:45.335Z,7.62
2019-02-22T18:50:14.224Z,6.72
2019-02-22T18:52:43.413Z,6.58
2019-02-22T18:55:12.415Z,5.75
2019-02-22T18:57:41.504Z,5.85
2019-02-22T19:00:20.478Z,6.80
2019-02-22T19:02:49.964Z,6.90
2019-02-22T19:05:18.935Z,7.67
2019-02-22T19:07:48.110Z,7.05
2019-02-22T19:10:20.480Z,7.25
2019-02-22T19:12:49.402Z,6.80
2019-02-22T19:15:18.550Z,7.53
2019-02-22T19:17:47.479Z,7.62
2019-02-22T19:20:21.159Z,5.90
2019-02-22T19:22:50.184Z,6.12
2019-02-22T19:25:19.181Z,6.67
2019-02-22T19:27:48.282Z,6.87
2019-02-22T19:30:18.910Z,5.80
2019-02-22T19:32:48.087Z,5.83
2019-02-22T19:35:17.389Z,5.85
2019-02-22T19:37:46.599Z,6.22
2019-02-22T19:40:18.350Z,6.12
2019-02-22T19:42:47.345Z,6.35
2019-02-22T19:45:16.436Z,8.65
2019-02-22T19:47:45.540Z,7.92
2019-02-22T19:50:15.030Z,7.45
2019-02-22T19:52:44.439Z,8.30
2019-02-22T19:55:15.511Z,6.83
2019-02-22T19:57:44.593Z,6.25
2019-02-22T20:00:15.889Z,5.70
2019-02-22T20:02:45.133Z,5.72
2019-02-22T20:05:15.134Z,6.08
2019-02-22T20:07:44.236Z,5.97
2019-02-22T20:10:18.314Z,6.85
2019-02-22T20:12:46.010Z,5.55
2019-02-22T20:15:16.920Z,6.37
2019-02-22T20:17:53.882Z,7.08
2019-02-22T20:20:20.449Z,5.70
2019-02-22T20:22:49.574Z,5.87
2019-02-22T20:25:18.429Z,6.85
2019-02-22T20:27:47.539Z,6.92
2019-02-22T20:30:19.783Z,5.80
2019-02-22T20:32:49.039Z,5.20
2019-02-22T20:35:23.392Z,6.83
2019-02-22T20:37:53.424Z,6.72
2019-02-22T20:40:22.644Z,7.08
2019-02-22T20:42:51.844Z,7.33
2019-02-22T20:45:20.825Z,8.63
2019-02-22T20:47:49.837Z,9.13
2019-02-22T20:50:18.904Z,8.48
2019-02-22T20:52:49.055Z,6.87
2019-02-22T20:55:18.048Z,9.23
2019-02-22T20:57:47.138Z,8.95
2019-02-22T21:00:20.743Z,9.08
2019-02-22T21:02:49.668Z,10.23
2019-02-22T21:05:18.933Z,10.05
2019-02-22T21:07:47.818Z,9.03
2019-02-22T21:10:18.529Z,9.40
2019-02-22T21:12:47.643Z,9.10
2019-02-22T21:15:16.745Z,11.05
2019-02-22T21:17:45.734Z,10.25
2019-02-22T21:20:22.104Z,9.28
2019-02-22T21:22:51.011Z,11.28
2019-02-22T21:25:20.079Z,10.65
2019-02-22T21:27:49.179Z,9.80
2019-02-22T21:30:19.760Z,10.98
2019-02-22T21:32:48.806Z,10.38
2019-02-22T21:35:17.909Z,12.43
2019-02-22T21:37:46.893Z,11.78
2019-02-22T21:40:16.057Z,11.40
2019-02-22T21:42:45.303Z,10.98
2019-02-22T21:45:15.255Z,12.07
2019-02-22T21:47:54.149Z,12.10
2019-02-22T21:50:16.715Z,11.83
2019-02-22T21:52:47.531Z,11.57
2019-02-22T21:55:16.805Z,11.20
2019-02-22T21:57:45.930Z,13.32
2019-02-22T22:00:20.745Z,11.00
2019-02-22T22:02:49.733Z,13.30
2019-02-22T22:05:18.824Z,10.50
2019-02-22T22:07:48.840Z,12.05
2019-02-22T22:10:18.155Z,12.13
2019-02-22T22:12:47.239Z,11.55
2019-02-22T22:15:16.749Z,14.13
2019-02-22T22:17:45.947Z,11.43
2019-02-22T22:20:15.092Z,11.00
2019-02-22T22:22:44.239Z,11.10
2019-02-22T22:25:17.234Z,11.40
2019-02-22T22:27:47.339Z,12.78
2019-02-22T22:30:37.120Z,12.65
2019-02-22T22:33:06.209Z,11.68
2019-02-22T22:35:35.211Z,13.25
2019-02-22T22:38:04.300Z,11.83
2019-02-22T22:40:33.289Z,10.82
2019-02-22T22:43:04.035Z,10.68
2019-02-22T22:45:33.218Z,11.93
2019-02-22T22:48:02.320Z,14.40
2019-02-22T22:50:31.409Z,12.07
2019-02-22T22:53:00.583Z,12.53
2019-02-22T22:55:29.469Z,12.03
2019-02-22T22:57:58.622Z,12.03
2019-02-22T23:00:52.881Z,13.10
2019-02-22T23:03:22.279Z,10.43
2019-02-22T23:05:51.181Z,11.78
2019-02-22T23:08:20.281Z,11.93
2019-02-22T23:10:49.364Z,11.57
2019-02-22T23:13:18.473Z,11.10
2019-02-22T23:15:47.551Z,9.90
2019-02-22T23:18:16.559Z,13.28
2019-02-22T23:21:06.439Z,13.38
2019-02-22T23:23:35.428Z,14.23
2019-02-22T23:26:04.734Z,13.03
2019-02-22T23:28:33.829Z,12.95
2019-02-22T23:31:02.821Z,14.28
2019-02-22T23:33:31.875Z,13.30
2019-02-22T23:36:01.204Z,13.38
2019-02-22T23:38:30.314Z,13.45
2019-02-22T23:40:59.305Z,13.05
2019-02-22T23:43:28.396Z,13.18
2019-02-22T23:45:57.284Z,11.90
2019-02-22T23:48:26.403Z,11.20
2019-02-22T23:50:55.465Z,15.98
2019-02-22T23:53:24.484Z,12.33
2019-02-22T23:55:53.459Z,12.95
2019-02-22T23:58:22.659Z,13.45
